sensor_id;sensor_type;location;lat;lon;timestamp;P1;durP1;ratioP1;P2;durP2;ratioP2
58460;SDS011;45558;37.752;-97.822;2023-01-13T00:02:12;12.10;;;2.00;;
58460;SDS011;45558;37.752;-97.822;2023-01-13T00:04:38;16.48;;;1.40;;
58460;SDS011;45558;37.752;-97.822;2023-01-13T00:07:03;11.63;;;2.38;;
58460;SDS011;45558;37.752;-97.822;2023-01-13T00:09:29;23.45;;;2.03;;
58460;SDS011;45558;37.752;-97.822;2023-01-13T00:11:55;16.67;;;2.60;;
58460;SDS011;45558;37.752;-97.822;2023-01-13T00:14:20;14.20;;;1.40;;
58460;SDS011;45558;37.752;-97.822;2023-01-13T00:16:46;19.77;;;3.35;;
58460;SDS011;45558;37.752;-97.822;2023-01-13T00:19:12;16.27;;;1.35;;
58460;SDS011;45558;37.752;-97.822;2023-01-13T00:21:37;14.77;;;1.30;;
58460;SDS011;45558;37.752;-97.822;2023-01-13T00:24:03;21.08;;;2.25;;
58460;SDS011;45558;37.752;-97.822;2023-01-13T00:26:29;12.75;;;1.70;;
58460;SDS011;45558;37.752;-97.822;2023-01-13T00:28:58;15.77;;;2.00;;
58460;SDS011;45558;37.752;-97.822;2023-01-13T00:31:24;13.48;;;1.50;;
58460;SDS011;45558;37.752;-97.822;2023-01-13T00:33:51;21.90;;;2.17;;
58460;SDS011;45558;37.752;-97.822;2023-01-13T00:36:18;21.75;;;2.75;;
58460;SDS011;45558;37.752;-97.822;2023-01-13T00:38:44;12.52;;;1.60;;
58460;SDS011;45558;37.752;-97.822;2023-01-13T00:41:12;10.50;;;2.05;;
58460;SDS011;45558;37.752;-97.822;2023-01-13T00:46:09;17.25;;;2.40;;
58460;SDS011;45558;37.752;-97.822;2023-01-13T00:48:36;15.40;;;1.95;;
58460;SDS011;45558;37.752;-97.822;2023-01-13T00:51:10;15.23;;;2.03;;
58460;SDS011;45558;37.752;-97.822;2023-01-13T00:53:38;16.38;;;2.97;;
58460;SDS011;45558;37.752;-97.822;2023-01-13T00:56:09;20.13;;;3.70;;
58460;SDS011;45558;37.752;-97.822;2023-01-13T00:58:40;20.95;;;2.50;;
58460;SDS011;45558;37.752;-97.822;2023-01-13T01:01:08;11.82;;;1.70;;
58460;SDS011;45558;37.752;-97.822;2023-01-13T01:03:35;19.38;;;2.33;;
58460;SDS011;45558;37.752;-97.822;2023-01-13T01:06:09;21.10;;;3.40;;
58460;SDS011;45558;37.752;-97.822;2023-01-13T01:08:36;18.17;;;2.45;;
58460;SDS011;45558;37.752;-97.822;2023-01-13T01:11:06;24.50;;;2.70;;
58460;SDS011;45558;37.752;-97.822;2023-01-13T01:13:33;15.30;;;1.58;;
58460;SDS011;45558;37.752;-97.822;2023-01-13T01:16:02;17.15;;;2.65;;
58460;SDS011;45558;37.752;-97.822;2023-01-13T01:18:35;14.10;;;1.50;;
58460;SDS011;45558;37.752;-97.822;2023-01-13T01:21:02;23.95;;;2.72;;
58460;SDS011;45558;37.752;-97.822;2023-01-13T01:23:28;15.07;;;2.50;;
58460;SDS011;45558;37.752;-97.822;2023-01-13T01:25:58;20.63;;;1.88;;
58460;SDS011;45558;37.752;-97.822;2023-01-13T01:28:25;22.08;;;1.80;;
58460;SDS011;45558;37.752;-97.822;2023-01-13T01:30:51;19.00;;;3.20;;
58460;SDS011;45558;37.752;-97.822;2023-01-13T01:33:18;17.48;;;1.95;;
58460;SDS011;45558;37.752;-97.822;2023-01-13T01:35:44;17.10;;;2.13;;
58460;SDS011;45558;37.752;-97.822;2023-01-13T01:38:10;14.55;;;1.88;;
58460;SDS011;45558;37.752;-97.822;2023-01-13T01:40:35;17.65;;;2.78;;
58460;SDS011;45558;37.752;-97.822;2023-01-13T01:43:01;14.70;;;1.45;;
58460;SDS011;45558;37.752;-97.822;2023-01-13T01:45:45;14.30;;;1.25;;
58460;SDS011;45558;37.752;-97.822;2023-01-13T01:48:11;11.85;;;1.95;;
58460;SDS011;45558;37.752;-97.822;2023-01-13T01:50:37;16.23;;;1.83;;
58460;SDS011;45558;37.752;-97.822;2023-01-13T01:53:13;10.02;;;1.80;;
58460;SDS011;45558;37.752;-97.822;2023-01-13T01:55:41;14.95;;;2.47;;
58460;SDS011;45558;37.752;-97.822;2023-01-13T01:58:10;17.45;;;1.58;;
58460;SDS011;45558;37.752;-97.822;2023-01-13T02:00:46;17.00;;;1.60;;
58460;SDS011;45558;37.752;-97.822;2023-01-13T02:03:12;17.95;;;1.40;;
58460;SDS011;45558;37.752;-97.822;2023-01-13T02:05:39;25.58;;;2.15;;
58460;SDS011;45558;37.752;-97.822;2023-01-13T02:08:05;17.20;;;2.08;;
58460;SDS011;45558;37.752;-97.822;2023-01-13T02:10:33;22.05;;;1.88;;
58460;SDS011;45558;37.752;-97.822;2023-01-13T02:13:00;22.00;;;2.22;;
58460;SDS011;45558;37.752;-97.822;2023-01-13T02:18:52;11.73;;;1.23;;
58460;SDS011;45558;37.752;-97.822;2023-01-13T02:21:34;14.43;;;1.20;;
58460;SDS011;45558;37.752;-97.822;2023-01-13T02:35:53;6.30;;;1.15;;
58460;SDS011;45558;37.752;-97.822;2023-01-13T02:38:45;11.18;;;1.77;;
58460;SDS011;45558;37.752;-97.822;2023-01-13T02:44:40;9.80;;;1.45;;
58460;SDS011;45558;37.752;-97.822;2023-01-13T02:54:59;4.70;;;0.80;;
58460;SDS011;45558;37.752;-97.822;2023-01-13T02:57:31;8.45;;;1.17;;
58460;SDS011;45558;37.752;-97.822;2023-01-13T02:59:58;15.15;;;1.15;;
58460;SDS011;45558;37.752;-97.822;2023-01-13T03:02:24;12.30;;;1.63;;
58460;SDS011;45558;37.752;-97.822;2023-01-13T03:04:51;14.85;;;1.13;;
58460;SDS011;45558;37.752;-97.822;2023-01-13T03:10:19;8.15;;;1.00;;
58460;SDS011;45558;37.752;-97.822;2023-01-13T03:12:57;5.18;;;0.68;;
58460;SDS011;45558;37.752;-97.822;2023-01-13T03:15:36;10.00;;;0.65;;
58460;SDS011;45558;37.752;-97.822;2023-01-13T03:18:45;5.63;;;0.50;;
58460;SDS011;45558;37.752;-97.822;2023-01-13T03:32:00;16.00;;;1.73;;
58460;SDS011;45558;37.752;-97.822;2023-01-13T03:34:34;15.48;;;2.58;;
58460;SDS011;45558;37.752;-97.822;2023-01-13T03:37:04;8.88;;;1.30;;
58460;SDS011;45558;37.752;-97.822;2023-01-13T03:39:33;12.20;;;2.38;;
58460;SDS011;45558;37.752;-97.822;2023-01-13T03:42:02;14.95;;;1.55;;
58460;SDS011;45558;37.752;-97.822;2023-01-13T03:44:37;13.88;;;1.45;;
58460;SDS011;45558;37.752;-97.822;2023-01-13T03:50:09;10.25;;;1.50;;
58460;SDS011;45558;37.752;-97.822;2023-01-13T03:52:46;13.75;;;2.70;;
58460;SDS011;45558;37.752;-97.822;2023-01-13T03:57:58;14.20;;;1.23;;
58460;SDS011;45558;37.752;-97.822;2023-01-13T04:00:40;11.95;;;1.60;;
58460;SDS011;45558;37.752;-97.822;2023-01-13T04:03:26;8.93;;;1.75;;
58460;SDS011;45558;37.752;-97.822;2023-01-13T04:06:00;12.23;;;1.73;;
58460;SDS011;45558;37.752;-97.822;2023-01-13T04:08:35;11.50;;;1.65;;
58460;SDS011;45558;37.752;-97.822;2023-01-13T04:11:06;11.95;;;1.55;;
58460;SDS011;45558;37.752;-97.822;2023-01-13T04:13:37;12.75;;;1.33;;
58460;SDS011;45558;37.752;-97.822;2023-01-13T04:16:04;18.40;;;1.58;;
58460;SDS011;45558;37.752;-97.822;2023-01-13T04:18:30;21.55;;;2.10;;
58460;SDS011;45558;37.752;-97.822;2023-01-13T04:20:57;13.13;;;2.70;;
58460;SDS011;45558;37.752;-97.822;2023-01-13T04:23:24;16.42;;;1.38;;
58460;SDS011;45558;37.752;-97.822;2023-01-13T04:25:51;12.30;;;1.88;;
58460;SDS011;45558;37.752;-97.822;2023-01-13T04:28:18;15.48;;;1.60;;
58460;SDS011;45558;37.752;-97.822;2023-01-13T04:30:44;19.52;;;1.92;;
58460;SDS011;45558;37.752;-97.822;2023-01-13T04:33:11;13.68;;;1.67;;
58460;SDS011;45558;37.752;-97.822;2023-01-13T04:35:37;16.80;;;1.75;;
58460;SDS011;45558;37.752;-97.822;2023-01-13T04:38:04;18.70;;;3.08;;
58460;SDS011;45558;37.752;-97.822;2023-01-13T04:40:34;18.08;;;1.67;;
58460;SDS011;45558;37.752;-97.822;2023-01-13T04:43:00;11.75;;;1.52;;
58460;SDS011;45558;37.752;-97.822;2023-01-13T04:45:26;10.93;;;1.35;;
58460;SDS011;45558;37.752;-97.822;2023-01-13T04:47:51;20.48;;;2.38;;
58460;SDS011;45558;37.752;-97.822;2023-01-13T04:50:17;14.43;;;1.23;;
58460;SDS011;45558;37.752;-97.822;2023-01-13T04:52:47;17.67;;;2.10;;
58460;SDS011;45558;37.752;-97.822;2023-01-13T04:58:35;19.20;;;2.22;;
58460;SDS011;45558;37.752;-97.822;2023-01-13T05:01:01;34.30;;;2.42;;
58460;SDS011;45558;37.752;-97.822;2023-01-13T05:03:27;13.90;;;1.83;;
58460;SDS011;45558;37.752;-97.822;2023-01-13T05:05:52;23.67;;;1.90;;
58460;SDS011;45558;37.752;-97.822;2023-01-13T05:08:18;25.02;;;2.40;;
58460;SDS011;45558;37.752;-97.822;2023-01-13T05:10:44;20.55;;;2.08;;
58460;SDS011;45558;37.752;-97.822;2023-01-13T05:13:09;20.70;;;2.28;;
58460;SDS011;45558;37.752;-97.822;2023-01-13T05:15:53;25.33;;;3.08;;
58460;SDS011;45558;37.752;-97.822;2023-01-13T05:18:48;25.98;;;2.95;;
58460;SDS011;45558;37.752;-97.822;2023-01-13T05:21:13;21.65;;;2.50;;
58460;SDS011;45558;37.752;-97.822;2023-01-13T05:23:57;23.98;;;2.70;;
58460;SDS011;45558;37.752;-97.822;2023-01-13T05:26:41;22.33;;;2.92;;
58460;SDS011;45558;37.752;-97.822;2023-01-13T05:29:07;15.38;;;1.92;;
58460;SDS011;45558;37.752;-97.822;2023-01-13T05:31:33;8.80;;;2.30;;
58460;SDS011;45558;37.752;-97.822;2023-01-13T05:33:58;17.80;;;1.63;;
58460;SDS011;45558;37.752;-97.822;2023-01-13T05:36:24;15.68;;;1.83;;
58460;SDS011;45558;37.752;-97.822;2023-01-13T05:38:50;15.48;;;2.38;;
58460;SDS011;45558;37.752;-97.822;2023-01-13T05:41:16;27.92;;;2.50;;
58460;SDS011;45558;37.752;-97.822;2023-01-13T05:44:00;17.48;;;2.00;;
58460;SDS011;45558;37.752;-97.822;2023-01-13T05:46:26;15.90;;;2.17;;
58460;SDS011;45558;37.752;-97.822;2023-01-13T05:48:51;25.88;;;2.53;;
58460;SDS011;45558;37.752;-97.822;2023-01-13T05:51:17;10.70;;;1.48;;
58460;SDS011;45558;37.752;-97.822;2023-01-13T05:53:46;10.65;;;1.30;;
58460;SDS011;45558;37.752;-97.822;2023-01-13T05:56:12;21.88;;;2.25;;
58460;SDS011;45558;37.752;-97.822;2023-01-13T05:58:38;13.45;;;1.48;;
58460;SDS011;45558;37.752;-97.822;2023-01-13T06:01:05;10.85;;;1.80;;
58460;SDS011;45558;37.752;-97.822;2023-01-13T06:03:32;10.70;;;1.85;;
58460;SDS011;45558;37.752;-97.822;2023-01-13T06:05:58;16.67;;;1.98;;
58460;SDS011;45558;37.752;-97.822;2023-01-13T06:08:26;17.92;;;1.88;;
58460;SDS011;45558;37.752;-97.822;2023-01-13T06:10:52;15.25;;;2.42;;
58460;SDS011;45558;37.752;-97.822;2023-01-13T06:13:19;12.90;;;3.03;;
58460;SDS011;45558;37.752;-97.822;2023-01-13T06:15:45;16.67;;;1.95;;
58460;SDS011;45558;37.752;-97.822;2023-01-13T06:18:11;15.27;;;2.20;;
58460;SDS011;45558;37.752;-97.822;2023-01-13T06:20:37;18.17;;;2.05;;
58460;SDS011;45558;37.752;-97.822;2023-01-13T06:23:02;22.15;;;2.40;;
58460;SDS011;45558;37.752;-97.822;2023-01-13T06:25:35;16.35;;;1.83;;
58460;SDS011;45558;37.752;-97.822;2023-01-13T06:28:05;13.90;;;1.60;;
58460;SDS011;45558;37.752;-97.822;2023-01-13T06:30:34;12.95;;;1.60;;
58460;SDS011;45558;37.752;-97.822;2023-01-13T06:33:12;16.70;;;1.67;;
58460;SDS011;45558;37.752;-97.822;2023-01-13T06:35:40;13.70;;;2.22;;
58460;SDS011;45558;37.752;-97.822;2023-01-13T06:38:11;16.52;;;1.88;;
58460;SDS011;45558;37.752;-97.822;2023-01-13T06:40:38;8.93;;;1.15;;
58460;SDS011;45558;37.752;-97.822;2023-01-13T06:43:05;8.20;;;0.90;;
58460;SDS011;45558;37.752;-97.822;2023-01-13T06:48:15;6.45;;;0.70;;
58460;SDS011;45558;37.752;-97.822;2023-01-13T06:50:52;10.57;;;1.58;;
58460;SDS011;45558;37.752;-97.822;2023-01-13T06:53:18;10.05;;;1.13;;
58460;SDS011;45558;37.752;-97.822;2023-01-13T06:55:44;9.32;;;0.75;;
58460;SDS011;45558;37.752;-97.822;2023-01-13T06:58:10;3.92;;;0.80;;
58460;SDS011;45558;37.752;-97.822;2023-01-13T07:00:36;10.05;;;1.23;;
58460;SDS011;45558;37.752;-97.822;2023-01-13T07:03:20;6.65;;;0.70;;
58460;SDS011;45558;37.752;-97.822;2023-01-13T07:05:50;6.03;;;0.95;;
58460;SDS011;45558;37.752;-97.822;2023-01-13T07:08:18;6.38;;;0.75;;
58460;SDS011;45558;37.752;-97.822;2023-01-13T07:11:12;6.25;;;0.55;;
58460;SDS011;45558;37.752;-97.822;2023-01-13T07:13:39;9.85;;;0.98;;
58460;SDS011;45558;37.752;-97.822;2023-01-13T07:16:24;6.55;;;1.48;;
58460;SDS011;45558;37.752;-97.822;2023-01-13T07:18:52;8.75;;;0.80;;
58460;SDS011;45558;37.752;-97.822;2023-01-13T07:21:19;5.10;;;1.00;;
58460;SDS011;45558;37.752;-97.822;2023-01-13T07:23:46;12.10;;;1.00;;
58460;SDS011;45558;37.752;-97.822;2023-01-13T07:26:12;11.63;;;1.08;;
58460;SDS011;45558;37.752;-97.822;2023-01-13T07:28:39;10.07;;;1.00;;
58460;SDS011;45558;37.752;-97.822;2023-01-13T07:31:12;10.68;;;1.38;;
58460;SDS011;45558;37.752;-97.822;2023-01-13T07:33:45;8.77;;;1.00;;
58460;SDS011;45558;37.752;-97.822;2023-01-13T07:36:12;12.73;;;1.95;;
58460;SDS011;45558;37.752;-97.822;2023-01-13T07:38:38;10.90;;;2.00;;
58460;SDS011;45558;37.752;-97.822;2023-01-13T07:41:05;16.95;;;3.05;;
58460;SDS011;45558;37.752;-97.822;2023-01-13T07:43:50;15.93;;;2.03;;
58460;SDS011;45558;37.752;-97.822;2023-01-13T07:46:16;16.88;;;1.60;;
58460;SDS011;45558;37.752;-97.822;2023-01-13T07:48:42;15.65;;;2.22;;
58460;SDS011;45558;37.752;-97.822;2023-01-13T07:51:09;26.67;;;3.67;;
58460;SDS011;45558;37.752;-97.822;2023-01-13T07:53:36;18.05;;;2.28;;
58460;SDS011;45558;37.752;-97.822;2023-01-13T07:56:03;10.02;;;1.52;;
58460;SDS011;45558;37.752;-97.822;2023-01-13T07:58:31;17.05;;;1.30;;
58460;SDS011;45558;37.752;-97.822;2023-01-13T08:00:58;12.98;;;1.55;;
58460;SDS011;45558;37.752;-97.822;2023-01-13T08:03:25;20.88;;;1.45;;
58460;SDS011;45558;37.752;-97.822;2023-01-13T08:05:52;10.07;;;1.63;;
58460;SDS011;45558;37.752;-97.822;2023-01-13T08:08:20;11.35;;;1.80;;
58460;SDS011;45558;37.752;-97.822;2023-01-13T08:10:46;12.25;;;1.25;;
58460;SDS011;45558;37.752;-97.822;2023-01-13T08:13:15;15.27;;;1.38;;
58460;SDS011;45558;37.752;-97.822;2023-01-13T08:15:47;13.32;;;1.90;;
58460;SDS011;45558;37.752;-97.822;2023-01-13T08:18:14;7.97;;;1.65;;
58460;SDS011;45558;37.752;-97.822;2023-01-13T08:20:40;12.70;;;2.20;;
58460;SDS011;45558;37.752;-97.822;2023-01-13T08:23:06;8.68;;;1.10;;
58460;SDS011;45558;37.752;-97.822;2023-01-13T08:25:32;15.45;;;1.23;;
58460;SDS011;45558;37.752;-97.822;2023-01-13T08:27:57;10.80;;;1.10;;
58460;SDS011;45558;37.752;-97.822;2023-01-13T08:30:24;12.27;;;1.63;;
58460;SDS011;45558;37.752;-97.822;2023-01-13T08:32:51;18.13;;;3.03;;
58460;SDS011;45558;37.752;-97.822;2023-01-13T08:35:17;6.63;;;1.02;;
58460;SDS011;45558;37.752;-97.822;2023-01-13T08:37:44;17.88;;;1.58;;
58460;SDS011;45558;37.752;-97.822;2023-01-13T08:40:12;8.85;;;1.40;;
58460;SDS011;45558;37.752;-97.822;2023-01-13T08:42:38;11.20;;;0.82;;
58460;SDS011;45558;37.752;-97.822;2023-01-13T08:45:05;15.45;;;1.20;;
58460;SDS011;45558;37.752;-97.822;2023-01-13T08:47:31;7.43;;;0.60;;
58460;SDS011;45558;37.752;-97.822;2023-01-13T08:49:57;11.20;;;1.40;;
58460;SDS011;45558;37.752;-97.822;2023-01-13T08:52:23;9.77;;;0.90;;
58460;SDS011;45558;37.752;-97.822;2023-01-13T08:54:48;8.52;;;0.90;;
58460;SDS011;45558;37.752;-97.822;2023-01-13T08:57:14;7.45;;;1.20;;
58460;SDS011;45558;37.752;-97.822;2023-01-13T08:59:41;13.50;;;2.08;;
58460;SDS011;45558;37.752;-97.822;2023-01-13T09:02:11;8.10;;;2.03;;
58460;SDS011;45558;37.752;-97.822;2023-01-13T09:04:38;8.52;;;1.25;;
58460;SDS011;45558;37.752;-97.822;2023-01-13T09:07:05;12.27;;;1.08;;
58460;SDS011;45558;37.752;-97.822;2023-01-13T09:09:31;22.25;;;2.80;;
58460;SDS011;45558;37.752;-97.822;2023-01-13T09:11:57;10.43;;;1.05;;
58460;SDS011;45558;37.752;-97.822;2023-01-13T09:14:41;19.10;;;1.65;;
58460;SDS011;45558;37.752;-97.822;2023-01-13T09:17:07;13.38;;;1.90;;
58460;SDS011;45558;37.752;-97.822;2023-01-13T09:19:33;7.43;;;0.95;;
58460;SDS011;45558;37.752;-97.822;2023-01-13T09:21:59;12.93;;;1.50;;
58460;SDS011;45558;37.752;-97.822;2023-01-13T09:24:27;12.00;;;1.50;;
58460;SDS011;45558;37.752;-97.822;2023-01-13T09:26:54;15.07;;;1.38;;
58460;SDS011;45558;37.752;-97.822;2023-01-13T09:32:42;12.70;;;2.50;;
58460;SDS011;45558;37.752;-97.822;2023-01-13T09:35:08;12.80;;;1.88;;
58460;SDS011;45558;37.752;-97.822;2023-01-13T09:37:37;13.88;;;1.73;;
58460;SDS011;45558;37.752;-97.822;2023-01-13T09:40:06;21.52;;;3.15;;
58460;SDS011;45558;37.752;-97.822;2023-01-13T09:45:45;11.13;;;1.08;;
58460;SDS011;45558;37.752;-97.822;2023-01-13T09:53:29;7.82;;;1.13;;
58460;SDS011;45558;37.752;-97.822;2023-01-13T09:55:56;11.57;;;2.13;;
58460;SDS011;45558;37.752;-97.822;2023-01-13T09:58:22;12.77;;;1.00;;
58460;SDS011;45558;37.752;-97.822;2023-01-13T10:03:28;10.40;;;1.45;;
58460;SDS011;45558;37.752;-97.822;2023-01-13T10:08:32;11.50;;;1.50;;
58460;SDS011;45558;37.752;-97.822;2023-01-13T10:11:12;12.52;;;1.50;;
58460;SDS011;45558;37.752;-97.822;2023-01-13T10:17:11;12.02;;;3.10;;
58460;SDS011;45558;37.752;-97.822;2023-01-13T10:28:09;18.48;;;2.28;;
58460;SDS011;45558;37.752;-97.822;2023-01-13T10:30:38;21.20;;;2.00;;
58460;SDS011;45558;37.752;-97.822;2023-01-13T10:33:12;20.83;;;3.00;;
58460;SDS011;45558;37.752;-97.822;2023-01-13T10:35:48;26.38;;;3.10;;
58460;SDS011;45558;37.752;-97.822;2023-01-13T10:38:19;16.98;;;2.17;;
58460;SDS011;45558;37.752;-97.822;2023-01-13T10:40:51;16.85;;;2.10;;
58460;SDS011;45558;37.752;-97.822;2023-01-13T10:43:17;23.67;;;3.65;;
58460;SDS011;45558;37.752;-97.822;2023-01-13T10:46:05;21.83;;;2.05;;
58460;SDS011;45558;37.752;-97.822;2023-01-13T10:48:37;26.83;;;3.08;;
58460;SDS011;45558;37.752;-97.822;2023-01-13T10:53:45;25.77;;;2.00;;
58460;SDS011;45558;37.752;-97.822;2023-01-13T10:56:17;24.40;;;1.83;;
58460;SDS011;45558;37.752;-97.822;2023-01-13T10:58:44;18.05;;;2.35;;
58460;SDS011;45558;37.752;-97.822;2023-01-13T11:01:20;20.00;;;1.50;;
58460;SDS011;45558;37.752;-97.822;2023-01-13T11:03:51;16.25;;;2.20;;
58460;SDS011;45558;37.752;-97.822;2023-01-13T11:06:19;22.48;;;1.88;;
58460;SDS011;45558;37.752;-97.822;2023-01-13T11:08:49;17.48;;;3.00;;
58460;SDS011;45558;37.752;-97.822;2023-01-13T11:16:57;16.60;;;1.55;;
58460;SDS011;45558;37.752;-97.822;2023-01-13T11:19:26;18.15;;;1.98;;
58460;SDS011;45558;37.752;-97.822;2023-01-13T11:21:55;20.13;;;1.73;;
58460;SDS011;45558;37.752;-97.822;2023-01-13T11:24:47;12.38;;;1.55;;
58460;SDS011;45558;37.752;-97.822;2023-01-13T11:35:37;14.20;;;2.85;;
58460;SDS011;45558;37.752;-97.822;2023-01-13T11:46:54;16.50;;;2.17;;
58460;SDS011;45558;37.752;-97.822;2023-01-13T11:49:24;11.07;;;2.65;;
58460;SDS011;45558;37.752;-97.822;2023-01-13T11:51:56;21.98;;;1.60;;
58460;SDS011;45558;37.752;-97.822;2023-01-13T11:54:46;36.30;;;3.15;;
58460;SDS011;45558;37.752;-97.822;2023-01-13T12:00:28;19.15;;;3.10;;
58460;SDS011;45558;37.752;-97.822;2023-01-13T12:06:38;21.02;;;1.80;;
58460;SDS011;45558;37.752;-97.822;2023-01-13T12:09:22;15.52;;;3.28;;
58460;SDS011;45558;37.752;-97.822;2023-01-13T12:12:16;26.38;;;2.13;;
58460;SDS011;45558;37.752;-97.822;2023-01-13T12:20:13;27.48;;;3.65;;
58460;SDS011;45558;37.752;-97.822;2023-01-13T12:22:44;25.40;;;2.30;;
58460;SDS011;45558;37.752;-97.822;2023-01-13T12:27:46;24.48;;;3.20;;
58460;SDS011;45558;37.752;-97.822;2023-01-13T12:32:51;15.77;;;2.13;;
58460;SDS011;45558;37.752;-97.822;2023-01-13T12:35:27;19.95;;;2.50;;
58460;SDS011;45558;37.752;-97.822;2023-01-13T12:43:17;19.23;;;2.10;;
58460;SDS011;45558;37.752;-97.822;2023-01-13T12:51:21;26.70;;;3.83;;
58460;SDS011;45558;37.752;-97.822;2023-01-13T12:53:48;32.60;;;3.38;;
58460;SDS011;45558;37.752;-97.822;2023-01-13T13:01:42;29.95;;;5.35;;
58460;SDS011;45558;37.752;-97.822;2023-01-13T13:04:12;32.33;;;3.50;;
58460;SDS011;45558;37.752;-97.822;2023-01-13T13:06:42;29.17;;;4.13;;
58460;SDS011;45558;37.752;-97.822;2023-01-13T13:09:24;24.42;;;2.80;;
58460;SDS011;45558;37.752;-97.822;2023-01-13T13:11:56;25.80;;;3.00;;
58460;SDS011;45558;37.752;-97.822;2023-01-13T13:15:16;22.88;;;2.50;;
58460;SDS011;45558;37.752;-97.822;2023-01-13T13:19:45;33.08;;;4.50;;
58460;SDS011;45558;37.752;-97.822;2023-01-13T13:25:12;20.83;;;3.53;;
58460;SDS011;45558;37.752;-97.822;2023-01-13T13:40:46;23.65;;;3.95;;
58460;SDS011;45558;37.752;-97.822;2023-01-13T13:43:36;17.70;;;2.95;;
58460;SDS011;45558;37.752;-97.822;2023-01-13T13:46:27;20.08;;;2.83;;
58460;SDS011;45558;37.752;-97.822;2023-01-13T13:49:17;18.42;;;2.67;;
58460;SDS011;45558;37.752;-97.822;2023-01-13T13:51:54;26.40;;;2.65;;
58460;SDS011;45558;37.752;-97.822;2023-01-13T13:54:24;26.67;;;2.50;;
58460;SDS011;45558;37.752;-97.822;2023-01-13T13:56:50;18.40;;;3.70;;
58460;SDS011;45558;37.752;-97.822;2023-01-13T13:59:23;20.83;;;2.80;;
58460;SDS011;45558;37.752;-97.822;2023-01-13T14:01:54;26.20;;;3.78;;
58460;SDS011;45558;37.752;-97.822;2023-01-13T14:04:26;28.95;;;5.80;;
58460;SDS011;45558;37.752;-97.822;2023-01-13T14:06:55;28.92;;;5.13;;
58460;SDS011;45558;37.752;-97.822;2023-01-13T14:09:23;44.03;;;5.93;;
58460;SDS011;45558;37.752;-97.822;2023-01-13T14:11:57;24.13;;;4.43;;
58460;SDS011;45558;37.752;-97.822;2023-01-13T14:14:25;25.70;;;4.03;;
58460;SDS011;45558;37.752;-97.822;2023-01-13T14:16:51;24.33;;;3.90;;
58460;SDS011;45558;37.752;-97.822;2023-01-13T14:21:58;21.63;;;4.97;;
58460;SDS011;45558;37.752;-97.822;2023-01-13T14:24:25;22.25;;;3.50;;
58460;SDS011;45558;37.752;-97.822;2023-01-13T14:26:50;24.08;;;2.70;;
58460;SDS011;45558;37.752;-97.822;2023-01-13T14:29:18;18.88;;;2.78;;
58460;SDS011;45558;37.752;-97.822;2023-01-13T14:31:47;19.77;;;2.22;;
58460;SDS011;45558;37.752;-97.822;2023-01-13T14:34:17;25.23;;;4.07;;
58460;SDS011;45558;37.752;-97.822;2023-01-13T14:36:43;20.83;;;2.40;;
58460;SDS011;45558;37.752;-97.822;2023-01-13T14:44:28;23.85;;;3.35;;
58460;SDS011;45558;37.752;-97.822;2023-01-13T14:46:57;20.67;;;2.37;;
58460;SDS011;45558;37.752;-97.822;2023-01-13T14:57:11;17.15;;;2.70;;
58460;SDS011;45558;37.752;-97.822;2023-01-13T15:07:55;28.17;;;5.43;;
58460;SDS011;45558;37.752;-97.822;2023-01-13T15:10:36;26.65;;;8.52;;
58460;SDS011;45558;37.752;-97.822;2023-01-13T15:13:23;27.23;;;7.03;;
58460;SDS011;45558;37.752;-97.822;2023-01-13T15:16:27;23.17;;;6.05;;
58460;SDS011;45558;37.752;-97.822;2023-01-13T15:18:54;19.55;;;4.95;;
58460;SDS011;45558;37.752;-97.822;2023-01-13T15:21:20;24.88;;;5.28;;
58460;SDS011;45558;37.752;-97.822;2023-01-13T15:23:47;20.25;;;5.28;;
58460;SDS011;45558;37.752;-97.822;2023-01-13T15:28:46;21.30;;;6.50;;
58460;SDS011;45558;37.752;-97.822;2023-01-13T15:31:13;24.98;;;7.07;;
58460;SDS011;45558;37.752;-97.822;2023-01-13T15:33:39;21.60;;;8.13;;
58460;SDS011;45558;37.752;-97.822;2023-01-13T15:36:10;22.23;;;4.05;;
58460;SDS011;45558;37.752;-97.822;2023-01-13T15:38:46;18.70;;;3.78;;
58460;SDS011;45558;37.752;-97.822;2023-01-13T15:41:12;21.05;;;5.18;;
58460;SDS011;45558;37.752;-97.822;2023-01-13T15:43:37;18.38;;;4.25;;
58460;SDS011;45558;37.752;-97.822;2023-01-13T15:46:22;17.45;;;5.05;;
58460;SDS011;45558;37.752;-97.822;2023-01-13T15:49:07;16.63;;;5.45;;
58460;SDS011;45558;37.752;-97.822;2023-01-13T15:51:51;25.75;;;6.35;;
58460;SDS011;45558;37.752;-97.822;2023-01-13T15:54:17;33.53;;;12.80;;
58460;SDS011;45558;37.752;-97.822;2023-01-13T15:56:46;22.88;;;5.95;;
58460;SDS011;45558;37.752;-97.822;2023-01-13T15:59:17;26.88;;;9.68;;
58460;SDS011;45558;37.752;-97.822;2023-01-13T16:01:46;33.88;;;10.00;;
58460;SDS011;45558;37.752;-97.822;2023-01-13T16:04:12;44.20;;;13.32;;
58460;SDS011;45558;37.752;-97.822;2023-01-13T16:06:38;25.10;;;6.65;;
58460;SDS011;45558;37.752;-97.822;2023-01-13T16:09:04;21.10;;;6.95;;
58460;SDS011;45558;37.752;-97.822;2023-01-13T16:11:30;24.45;;;9.45;;
58460;SDS011;45558;37.752;-97.822;2023-01-13T16:13:56;18.38;;;6.22;;
58460;SDS011;45558;37.752;-97.822;2023-01-13T16:16:23;16.58;;;4.00;;
58460;SDS011;45558;37.752;-97.822;2023-01-13T16:18:51;20.95;;;4.40;;
58460;SDS011;45558;37.752;-97.822;2023-01-13T16:21:18;23.27;;;3.58;;
58460;SDS011;45558;37.752;-97.822;2023-01-13T16:23:44;15.98;;;4.80;;
58460;SDS011;45558;37.752;-97.822;2023-01-13T16:26:19;19.65;;;5.85;;
58460;SDS011;45558;37.752;-97.822;2023-01-13T16:28:46;30.45;;;10.20;;
58460;SDS011;45558;37.752;-97.822;2023-01-13T16:31:31;24.42;;;4.30;;
58460;SDS011;45558;37.752;-97.822;2023-01-13T16:33:58;28.77;;;8.20;;
58460;SDS011;45558;37.752;-97.822;2023-01-13T16:36:25;23.67;;;7.03;;
58460;SDS011;45558;37.752;-97.822;2023-01-13T16:38:52;29.45;;;8.52;;
58460;SDS011;45558;37.752;-97.822;2023-01-13T16:41:19;29.55;;;9.15;;
58460;SDS011;45558;37.752;-97.822;2023-01-13T16:47:13;19.25;;;2.97;;
58460;SDS011;45558;37.752;-97.822;2023-01-13T16:49:39;19.42;;;2.63;;
58460;SDS011;45558;37.752;-97.822;2023-01-13T16:52:05;26.35;;;5.38;;
58460;SDS011;45558;37.752;-97.822;2023-01-13T16:54:31;24.55;;;5.38;;
58460;SDS011;45558;37.752;-97.822;2023-01-13T16:56:57;31.70;;;6.57;;
58460;SDS011;45558;37.752;-97.822;2023-01-13T16:59:23;30.75;;;7.85;;
58460;SDS011;45558;37.752;-97.822;2023-01-13T17:01:48;27.42;;;8.18;;
58460;SDS011;45558;37.752;-97.822;2023-01-13T17:04:15;27.00;;;6.63;;
58460;SDS011;45558;37.752;-97.822;2023-01-13T17:06:57;22.17;;;7.68;;
58460;SDS011;45558;37.752;-97.822;2023-01-13T17:09:25;21.77;;;6.65;;
58460;SDS011;45558;37.752;-97.822;2023-01-13T17:11:52;37.47;;;9.73;;
58460;SDS011;45558;37.752;-97.822;2023-01-13T17:14:18;34.90;;;9.20;;
58460;SDS011;45558;37.752;-97.822;2023-01-13T17:16:57;44.85;;;14.60;;
58460;SDS011;45558;37.752;-97.822;2023-01-13T17:19:23;38.50;;;13.27;;
58460;SDS011;45558;37.752;-97.822;2023-01-13T17:21:49;30.88;;;10.50;;
58460;SDS011;45558;37.752;-97.822;2023-01-13T17:24:15;39.28;;;12.23;;
58460;SDS011;45558;37.752;-97.822;2023-01-13T17:26:42;48.63;;;19.98;;
58460;SDS011;45558;37.752;-97.822;2023-01-13T17:29:12;30.70;;;9.80;;
58460;SDS011;45558;37.752;-97.822;2023-01-13T17:31:40;41.60;;;15.35;;
58460;SDS011;45558;37.752;-97.822;2023-01-13T17:34:06;47.35;;;17.33;;
58460;SDS011;45558;37.752;-97.822;2023-01-13T17:36:32;36.30;;;13.30;;